createdAt,value
2018-01-27T00:00:28.776Z,28.55
2018-01-27T00:02:55.775Z,28.25
2018-01-27T00:05:22.050Z,26.02
2018-01-27T00:07:48.616Z,26.55
2018-01-27T00:10:15.603Z,25.70
2018-01-27T00:12:41.873Z,28.95
2018-01-27T00:15:08.161Z,25.90
2018-01-27T00:17:35.140Z,28.08
2018-01-27T00:20:01.431Z,29.92
2018-01-27T00:22:27.699Z,30.88
2018-01-27T00:24:54.701Z,22.73
2018-01-27T00:27:20.922Z,24.48
2018-01-27T00:29:47.162Z,27.42
2018-01-27T00:32:13.401Z,25.90
2018-01-27T00:34:39.635Z,28.05
2018-01-27T00:37:06.635Z,29.70
2018-01-27T00:39:32.876Z,27.02
2018-01-27T00:41:59.100Z,27.67
2018-01-27T00:44:25.343Z,26.90
2018-01-27T00:46:51.580Z,29.35
2018-01-27T00:49:17.861Z,31.00
2018-01-27T00:51:44.133Z,25.40
2018-01-27T00:54:10.409Z,24.98
2018-01-27T00:56:36.684Z,26.35
2018-01-27T00:59:02.929Z,27.17
2018-01-27T01:01:29.185Z,26.20
2018-01-27T01:03:56.156Z,25.95
2018-01-27T01:06:22.425Z,25.67
2018-01-27T01:08:48.669Z,26.55
2018-01-27T01:11:15.175Z,29.08
2018-01-27T01:13:42.160Z,27.20
2018-01-27T01:16:08.385Z,28.85
2018-01-27T01:18:35.348Z,28.02
2018-01-27T01:21:01.569Z,29.33
2018-01-27T01:23:28.719Z,28.70
2018-01-27T01:25:55.733Z,25.37
2018-01-27T01:28:21.988Z,26.15
2018-01-27T01:30:48.222Z,26.02
2018-01-27T01:33:14.510Z,25.40
2018-01-27T01:35:41.489Z,25.77
2018-01-27T01:38:07.787Z,28.23
2018-01-27T01:40:34.107Z,30.90
2018-01-27T01:43:16.968Z,33.95
2018-01-27T01:45:43.246Z,27.73
2018-01-27T01:48:09.471Z,26.48
2018-01-27T01:50:36.470Z,30.10
2018-01-27T01:53:02.726Z,28.27
2018-01-27T01:55:28.976Z,26.70
2018-01-27T01:57:55.215Z,31.35
2018-01-27T02:00:21.486Z,27.08
2018-01-27T02:02:48.474Z,28.70
2018-01-27T02:05:14.705Z,27.17
2018-01-27T02:07:40.973Z,24.45
2018-01-27T02:10:07.206Z,26.25
2018-01-27T02:12:33.468Z,32.78
2018-01-27T02:14:59.708Z,28.27
2018-01-27T02:17:25.951Z,25.20
2018-01-27T02:19:52.518Z,27.37
2018-01-27T02:22:18.773Z,30.48
2018-01-27T02:24:45.828Z,29.40
2018-01-27T02:27:12.077Z,29.25
2018-01-27T02:29:39.035Z,24.65
2018-01-27T02:32:06.039Z,26.83
2018-01-27T02:34:32.272Z,27.67
2018-01-27T02:36:58.500Z,30.37
2018-01-27T02:39:24.802Z,31.60
2018-01-27T02:41:51.806Z,32.08
2018-01-27T02:44:18.096Z,36.20
2018-01-27T02:46:44.367Z,30.95
2018-01-27T02:49:11.353Z,28.92
2018-01-27T02:51:37.578Z,28.75
2018-01-27T02:54:03.837Z,30.52
2018-01-27T02:56:30.120Z,32.03
2018-01-27T02:58:56.384Z,31.33
2018-01-27T03:01:23.392Z,32.17
2018-01-27T03:03:49.637Z,31.40
2018-01-27T03:06:15.908Z,32.50
2018-01-27T03:08:42.145Z,29.83
2018-01-27T03:11:08.381Z,29.87
2018-01-27T03:13:34.633Z,34.00
2018-01-27T03:16:01.623Z,29.75
2018-01-27T03:18:27.885Z,32.20
2018-01-27T03:20:54.102Z,29.92
2018-01-27T03:23:20.427Z,29.58
2018-01-27T03:25:47.441Z,27.58
2018-01-27T03:28:13.711Z,28.38
2018-01-27T03:30:39.978Z,27.65
2018-01-27T03:33:07.002Z,31.45
2018-01-27T03:35:33.289Z,29.85
2018-01-27T03:37:59.535Z,26.83
2018-01-27T03:40:25.808Z,28.55
2018-01-27T03:42:52.075Z,25.52
2018-01-27T03:45:18.327Z,29.40
2018-01-27T03:47:45.349Z,28.58
2018-01-27T03:50:11.624Z,25.50
2018-01-27T03:52:38.680Z,27.00
2018-01-27T03:55:04.905Z,25.40
2018-01-27T03:57:31.140Z,29.73
2018-01-27T03:59:57.417Z,26.65
2018-01-27T04:02:24.444Z,27.60
2018-01-27T04:04:50.699Z,29.98
2018-01-27T04:07:16.911Z,41.70
2018-01-27T04:09:43.167Z,32.38
2018-01-27T04:12:09.454Z,30.52
2018-01-27T04:14:35.688Z,27.13
2018-01-27T04:17:02.687Z,28.20
2018-01-27T04:19:28.920Z,24.75
2018-01-27T04:21:55.189Z,27.25
2018-01-27T04:24:21.547Z,26.67
2018-01-27T04:26:47.784Z,25.17
2018-01-27T04:29:14.848Z,26.52
2018-01-27T04:31:41.100Z,27.15
2018-01-27T04:34:07.370Z,30.12
2018-01-27T04:36:33.608Z,27.17
2018-01-27T04:38:59.895Z,30.12
2018-01-27T04:41:26.134Z,28.48
2018-01-27T04:43:52.374Z,29.08
2018-01-27T04:46:18.626Z,26.42
2018-01-27T04:48:44.883Z,27.73
2018-01-27T04:51:11.890Z,28.30
2018-01-27T04:53:38.152Z,26.83
2018-01-27T04:56:04.398Z,29.10
2018-01-27T04:58:30.639Z,26.77
2018-01-27T05:00:56.896Z,26.98
2018-01-27T05:03:23.901Z,28.98
2018-01-27T05:05:50.131Z,27.20
2018-01-27T05:08:16.437Z,28.10
2018-01-27T05:10:43.423Z,25.17
2018-01-27T05:13:09.689Z,26.75
2018-01-27T05:15:35.922Z,30.05
2018-01-27T05:18:02.148Z,27.83
2018-01-27T05:20:28.401Z,27.13
2018-01-27T05:22:54.702Z,26.62
2018-01-27T05:25:21.717Z,26.65
2018-01-27T05:27:47.951Z,26.42
2018-01-27T05:30:14.542Z,29.30
2018-01-27T05:32:41.514Z,31.60
2018-01-27T05:35:07.750Z,27.92
2018-01-27T05:37:34.748Z,27.15
2018-01-27T05:40:00.999Z,22.73
2018-01-27T05:42:28.013Z,22.10
2018-01-27T05:44:54.979Z,23.12
2018-01-27T05:47:21.239Z,22.15
2018-01-27T05:49:47.485Z,25.08
2018-01-27T05:52:13.730Z,21.73
2018-01-27T05:54:40.702Z,22.60
2018-01-27T05:57:06.956Z,22.05
2018-01-27T05:59:33.207Z,22.40
2018-01-27T06:01:59.476Z,24.02
2018-01-27T06:04:26.447Z,24.52
2018-01-27T06:06:52.713Z,22.62
2018-01-27T06:09:18.934Z,21.60
2018-01-27T06:11:45.216Z,22.05
2018-01-27T06:14:11.478Z,22.95
2018-01-27T06:16:38.487Z,25.12
2018-01-27T06:19:04.786Z,23.45
2018-01-27T06:21:31.829Z,22.17
2018-01-27T06:23:58.208Z,26.10
2018-01-27T06:26:24.480Z,22.35
2018-01-27T06:28:50.756Z,22.50
2018-01-27T06:31:16.989Z,23.00
2018-01-27T06:33:43.231Z,23.25
2018-01-27T06:36:09.483Z,21.87
2018-01-27T06:38:35.779Z,22.00
2018-01-27T06:41:02.074Z,24.30
2018-01-27T06:43:29.041Z,23.17
2018-01-27T06:45:56.038Z,24.45
2018-01-27T06:48:22.255Z,20.35
2018-01-27T06:50:48.497Z,21.20
2018-01-27T06:53:14.761Z,21.33
2018-01-27T06:55:41.023Z,21.40
2018-01-27T06:58:07.337Z,19.65
2018-01-27T07:00:33.562Z,19.67
2018-01-27T07:03:00.176Z,20.55
2018-01-27T07:05:26.429Z,20.85
2018-01-27T07:07:53.386Z,20.77
2018-01-27T07:10:20.393Z,23.15
2018-01-27T07:12:46.653Z,23.27
2018-01-27T07:15:12.929Z,21.27
2018-01-27T07:17:39.904Z,19.45
2018-01-27T07:20:06.175Z,20.80
2018-01-27T07:22:32.423Z,20.40
2018-01-27T07:24:58.682Z,19.27
2018-01-27T07:27:24.966Z,22.08
2018-01-27T07:29:51.236Z,20.95
2018-01-27T07:32:17.515Z,21.00
2018-01-27T07:34:43.771Z,21.10
2018-01-27T07:37:10.761Z,22.87
2018-01-27T07:39:37.032Z,20.67
2018-01-27T07:42:03.293Z,21.37
2018-01-27T07:44:29.587Z,22.60
2018-01-27T07:46:55.845Z,19.23
2018-01-27T07:49:22.088Z,23.70
2018-01-27T07:51:49.061Z,22.73
2018-01-27T07:54:15.308Z,22.87
2018-01-27T07:56:41.572Z,22.17
2018-01-27T07:59:08.573Z,22.08
2018-01-27T08:01:34.844Z,23.23
2018-01-27T08:04:01.088Z,21.10
2018-01-27T08:06:27.357Z,20.95
2018-01-27T08:08:54.377Z,22.48
2018-01-27T08:11:20.632Z,22.80
2018-01-27T08:13:46.920Z,23.85
2018-01-27T08:16:13.197Z,22.35
2018-01-27T08:18:39.466Z,23.77
2018-01-27T08:21:05.714Z,24.30
2018-01-27T08:23:32.781Z,25.88
2018-01-27T08:25:59.773Z,28.50
2018-01-27T08:28:26.057Z,23.80
2018-01-27T08:30:52.304Z,26.73
2018-01-27T08:33:18.562Z,23.17
2018-01-27T08:35:45.569Z,23.33
2018-01-27T08:38:11.815Z,22.20
2018-01-27T08:40:38.063Z,20.90
2018-01-27T08:43:04.310Z,22.62
2018-01-27T08:45:30.566Z,23.00
2018-01-27T08:47:56.814Z,25.15
2018-01-27T08:50:23.035Z,30.62
2018-01-27T08:52:49.294Z,29.12
2018-01-27T08:55:16.298Z,23.87
2018-01-27T08:57:42.572Z,26.20
2018-01-27T09:00:08.869Z,29.40
2018-01-27T09:02:35.139Z,28.23
2018-01-27T09:05:01.400Z,26.02
2018-01-27T09:07:27.627Z,27.35
2018-01-27T09:09:53.894Z,42.17
2018-01-27T09:12:20.173Z,30.88
2018-01-27T09:14:46.520Z,31.27
2018-01-27T09:17:12.780Z,32.03
2018-01-27T09:19:39.032Z,28.83
2018-01-27T09:22:05.312Z,29.15
2018-01-27T09:24:32.372Z,29.23
2018-01-27T09:26:58.612Z,29.12
2018-01-27T09:29:25.600Z,30.83
2018-01-27T09:31:51.862Z,29.50
2018-01-27T09:34:18.106Z,29.15
2018-01-27T09:36:44.405Z,31.02
2018-01-27T09:39:11.556Z,29.12
2018-01-27T09:41:38.235Z,27.35
2018-01-27T09:44:04.496Z,29.33
2018-01-27T09:46:30.740Z,28.98
2018-01-27T09:48:57.024Z,30.45
2018-01-27T09:51:24.029Z,28.15
2018-01-27T09:53:50.275Z,29.20
2018-01-27T09:56:16.537Z,30.25
2018-01-27T09:58:43.445Z,30.83
2018-01-27T10:01:09.723Z,31.52
2018-01-27T10:03:35.971Z,35.08
2018-01-27T10:06:02.248Z,33.35
2018-01-27T10:08:29.258Z,34.45
2018-01-27T10:10:55.523Z,33.17
2018-01-27T10:13:23.277Z,34.47
2018-01-27T10:15:49.546Z,32.80
2018-01-27T10:18:15.799Z,32.17
2018-01-27T10:20:42.811Z,31.10
2018-01-27T10:23:09.128Z,36.30
2018-01-27T10:25:35.389Z,34.30
2018-01-27T10:28:01.650Z,37.65
2018-01-27T10:30:27.999Z,34.28
2018-01-27T10:32:56.898Z,35.08
2018-01-27T10:35:24.457Z,36.47
2018-01-27T10:37:51.477Z,34.08
2018-01-27T10:40:17.729Z,34.47
2018-01-27T10:42:44.057Z,34.00
2018-01-27T10:45:11.056Z,34.70
2018-01-27T10:47:38.122Z,37.50
2018-01-27T10:50:04.399Z,33.92
2018-01-27T10:52:31.441Z,37.15
2018-01-27T10:54:57.705Z,34.00
2018-01-27T10:57:24.707Z,37.10
2018-01-27T10:59:51.752Z,38.42
2018-01-27T11:02:18.053Z,36.22
2018-01-27T11:04:44.302Z,33.63
2018-01-27T11:07:11.307Z,34.95
2018-01-27T11:09:37.561Z,34.85
2018-01-27T11:12:03.831Z,35.60
2018-01-27T11:14:30.099Z,31.08
2018-01-27T11:16:56.381Z,33.10
2018-01-27T11:19:22.660Z,32.85
2018-01-27T11:21:49.706Z,31.20
2018-01-27T11:24:16.146Z,32.10
2018-01-27T11:26:42.390Z,32.75
2018-01-27T11:29:08.654Z,33.53
2018-01-27T11:31:35.673Z,32.63
2018-01-27T11:34:01.952Z,32.47
2018-01-27T11:36:28.998Z,33.95
2018-01-27T11:38:55.308Z,34.33
2018-01-27T11:41:21.588Z,32.60
2018-01-27T11:43:48.632Z,34.05
2018-01-27T11:46:14.945Z,36.33
2018-01-27T11:48:41.185Z,33.58
2018-01-27T11:51:07.492Z,31.98
2018-01-27T11:53:33.798Z,34.65
2018-01-27T11:56:00.087Z,34.35
2018-01-27T11:58:26.415Z,33.33
2018-01-27T12:00:53.390Z,36.00
2018-01-27T12:03:19.680Z,34.05
2018-01-27T12:05:45.925Z,33.55
2018-01-27T12:08:12.218Z,33.22
2018-01-27T12:10:38.517Z,31.87
2018-01-27T12:13:04.786Z,30.10
2018-01-27T12:15:31.765Z,25.00
2018-01-27T12:17:58.110Z,24.73
2018-01-27T12:20:24.379Z,26.42
2018-01-27T12:22:50.624Z,30.45
2018-01-27T12:25:16.900Z,25.65
2018-01-27T12:27:43.890Z,28.00
2018-01-27T12:30:10.145Z,28.67
2018-01-27T12:32:36.436Z,28.33
2018-01-27T12:35:03.453Z,28.60
2018-01-27T12:37:30.856Z,32.15
2018-01-27T12:39:57.865Z,36.85
2018-01-27T12:42:24.135Z,33.65
2018-01-27T12:44:50.421Z,33.88
2018-01-27T12:47:16.663Z,34.63
2018-01-27T12:49:42.942Z,35.20
2018-01-27T12:52:09.194Z,33.53
2018-01-27T12:54:35.520Z,35.20
2018-01-27T12:57:01.815Z,35.40
2018-01-27T12:59:28.785Z,31.35
2018-01-27T13:01:55.061Z,35.03
2018-01-27T13:04:21.308Z,42.25
2018-01-27T13:06:47.882Z,33.88
2018-01-27T13:09:14.160Z,32.63
2018-01-27T13:11:40.442Z,36.50
2018-01-27T13:14:06.734Z,39.65
2018-01-27T13:16:32.990Z,44.40
2018-01-27T13:18:59.333Z,34.17
2018-01-27T13:21:25.607Z,32.92
2018-01-27T13:23:51.884Z,39.13
2018-01-27T13:26:18.150Z,33.63
2018-01-27T13:28:44.367Z,36.97
2018-01-27T13:31:10.639Z,35.03
2018-01-27T13:33:36.888Z,36.78
2018-01-27T13:36:03.196Z,34.67
2018-01-27T13:38:30.180Z,34.58
2018-01-27T13:40:56.414Z,36.78
2018-01-27T13:43:22.706Z,37.55
2018-01-27T13:45:48.949Z,31.58
2018-01-27T13:48:15.236Z,31.48
2018-01-27T13:50:41.493Z,34.13
2018-01-27T13:53:07.818Z,32.85
2018-01-27T13:55:34.073Z,30.37
2018-01-27T13:58:00.300Z,31.35
2018-01-27T14:00:26.571Z,31.50
2018-01-27T14:02:52.839Z,31.62
2018-01-27T14:05:19.160Z,29.17
2018-01-27T14:07:45.430Z,31.15
2018-01-27T14:10:11.722Z,33.63
2018-01-27T14:12:38.009Z,32.00
2018-01-27T14:15:04.278Z,30.90
2018-01-27T14:17:31.286Z,28.60
2018-01-27T14:19:57.583Z,29.25
2018-01-27T14:22:23.862Z,32.60
2018-01-27T14:24:50.223Z,42.00
2018-01-27T14:27:17.224Z,35.95
2018-01-27T14:29:44.295Z,29.60
2018-01-27T14:32:10.670Z,32.50
2018-01-27T14:34:36.973Z,34.67
2018-01-27T14:37:03.223Z,29.40
2018-01-27T14:39:29.833Z,32.63
2018-01-27T14:41:56.141Z,30.40
2018-01-27T14:44:22.399Z,35.35
2018-01-27T14:46:48.696Z,33.85
2018-01-27T14:49:14.968Z,33.72
2018-01-27T14:51:41.275Z,35.08
2018-01-27T14:54:08.310Z,32.78
2018-01-27T14:56:34.640Z,34.50
2018-01-27T14:59:00.907Z,35.67
2018-01-27T15:01:27.934Z,34.97
2018-01-27T15:03:54.237Z,34.05
2018-01-27T15:06:20.515Z,35.03
2018-01-27T15:08:46.797Z,33.45
2018-01-27T15:11:13.861Z,34.55
2018-01-27T15:13:40.166Z,36.33
2018-01-27T15:16:06.615Z,35.85
2018-01-27T15:18:35.244Z,37.08
2018-01-27T15:21:01.607Z,38.53
2018-01-27T15:23:27.993Z,42.22
2018-01-27T15:25:54.332Z,45.67
2018-01-27T15:28:20.699Z,43.55
2018-01-27T15:30:47.768Z,44.10
2018-01-27T15:33:14.816Z,43.97
2018-01-27T15:35:41.892Z,42.08
2018-01-27T15:38:08.519Z,42.65
2018-01-27T15:40:34.829Z,41.65
2018-01-27T15:43:01.114Z,43.63
2018-01-27T15:45:28.161Z,45.03
2018-01-27T15:47:54.479Z,41.30
2018-01-27T15:50:20.819Z,40.30
2018-01-27T15:52:47.114Z,41.42
2018-01-27T15:55:13.754Z,39.33
2018-01-27T15:57:40.905Z,40.17
2018-01-27T16:00:07.922Z,42.55
2018-01-27T16:02:34.808Z,41.15
2018-01-27T16:05:01.105Z,40.28
2018-01-27T16:07:27.421Z,36.35
2018-01-27T16:09:53.724Z,37.95
2018-01-27T16:12:20.247Z,38.67
2018-01-27T16:14:46.579Z,37.17
2018-01-27T16:17:12.889Z,37.20
2018-01-27T16:19:39.952Z,36.65
2018-01-27T16:22:06.970Z,36.65
2018-01-27T16:24:33.309Z,35.17
2018-01-27T16:26:59.587Z,36.22
2018-01-27T16:29:26.631Z,37.45
2018-01-27T16:31:52.956Z,36.58
2018-01-27T16:34:19.811Z,39.40
2018-01-27T16:36:46.214Z,43.30
2018-01-27T16:39:13.048Z,36.58
2018-01-27T16:41:40.117Z,40.70
2018-01-27T16:44:06.467Z,40.05
2018-01-27T16:46:32.801Z,39.83
2018-01-27T16:48:59.167Z,40.22
2018-01-27T16:51:25.488Z,38.30
2018-01-27T16:53:51.830Z,38.38
2018-01-27T16:56:18.950Z,38.30
2018-01-27T16:58:45.257Z,39.83
2018-01-27T17:01:11.585Z,37.00
2018-01-27T17:03:37.869Z,38.53
2018-01-27T17:06:04.174Z,36.83
2018-01-27T17:08:30.464Z,41.25
2018-01-27T17:10:56.766Z,39.20
2018-01-27T17:13:23.138Z,35.97
2018-01-27T17:15:49.417Z,39.72
2018-01-27T17:18:16.480Z,41.22
2018-01-27T17:20:43.494Z,39.13
2018-01-27T17:23:09.851Z,43.17
2018-01-27T17:25:42.626Z,41.80
2018-01-27T17:28:09.677Z,39.08
2018-01-27T17:30:36.050Z,42.25
2018-01-27T17:33:02.393Z,40.03
2018-01-27T17:35:28.960Z,41.63
2018-01-27T17:37:55.995Z,38.95
2018-01-27T17:40:22.325Z,37.72
2018-01-27T17:42:48.653Z,39.70
2018-01-27T17:45:14.940Z,34.90
2018-01-27T17:47:41.228Z,37.67
2018-01-27T17:50:07.511Z,36.72
2018-01-27T17:52:33.844Z,35.00
2018-01-27T17:55:00.171Z,36.22
2018-01-27T17:57:26.490Z,36.67
2018-01-27T17:59:52.796Z,35.50
2018-01-27T18:02:19.838Z,34.72
2018-01-27T18:04:46.153Z,35.88
2018-01-27T18:07:12.522Z,37.50
2018-01-27T18:09:38.916Z,37.25
2018-01-27T18:12:05.247Z,33.90
2018-01-27T18:14:32.287Z,38.90
2018-01-27T18:16:58.858Z,37.78
2018-01-27T18:19:25.886Z,38.90
2018-01-27T18:21:52.513Z,38.80
2018-01-27T18:24:19.334Z,36.50
2018-01-27T18:26:45.638Z,38.67
2018-01-27T18:29:12.703Z,35.80
2018-01-27T18:31:39.494Z,37.17
2018-01-27T18:34:05.838Z,34.88
2018-01-27T18:36:32.151Z,102.82
2018-01-27T18:39:00.242Z,41.55
2018-01-27T18:41:27.314Z,35.55
2018-01-27T18:43:54.841Z,39.83
2018-01-27T18:46:21.383Z,35.83
2018-01-27T18:48:47.668Z,36.17
2018-01-27T18:51:13.908Z,35.42
2018-01-27T18:53:40.194Z,35.10
2018-01-27T18:56:06.487Z,35.33
2018-01-27T18:58:32.852Z,34.47
2018-01-27T19:00:59.208Z,35.47
2018-01-27T19:03:25.508Z,37.35
2018-01-27T19:05:53.765Z,38.38
2018-01-27T19:08:20.486Z,36.33
2018-01-27T19:10:46.848Z,39.08
2018-01-27T19:13:13.132Z,37.75
2018-01-27T19:15:40.189Z,37.35
2018-01-27T19:18:07.223Z,41.58
2018-01-27T19:20:33.532Z,36.33
2018-01-27T19:22:59.894Z,37.90
2018-01-27T19:25:26.148Z,36.33
2018-01-27T19:27:52.475Z,39.22
2018-01-27T19:30:18.813Z,40.22
2018-01-27T19:32:45.128Z,40.10
2018-01-27T19:35:11.695Z,36.75
2018-01-27T19:37:37.996Z,38.00
2018-01-27T19:40:05.053Z,38.05
2018-01-27T19:42:32.195Z,36.28
2018-01-27T19:44:59.289Z,39.95
2018-01-27T19:47:25.659Z,39.38
2018-01-27T19:49:51.972Z,40.65
2018-01-27T19:52:19.059Z,39.58
2018-01-27T19:54:46.381Z,44.00
2018-01-27T19:57:13.490Z,42.55
2018-01-27T19:59:39.856Z,39.05
2018-01-27T20:02:06.246Z,40.80
2018-01-27T20:04:32.600Z,40.90
2018-01-27T20:06:58.974Z,41.40
2018-01-27T20:09:25.276Z,43.95
2018-01-27T20:11:51.650Z,41.50
2018-01-27T20:14:17.988Z,42.33
2018-01-27T20:16:44.364Z,41.97
2018-01-27T20:19:10.744Z,41.78
2018-01-27T20:21:37.983Z,45.33
2018-01-27T20:24:04.494Z,44.28
2018-01-27T20:26:30.820Z,42.47
2018-01-27T20:28:58.234Z,42.10
2018-01-27T20:31:24.608Z,43.58
2018-01-27T20:33:51.724Z,43.60
2018-01-27T20:36:19.111Z,45.33
2018-01-27T20:38:45.446Z,44.03
2018-01-27T20:41:11.809Z,42.03
2018-01-27T20:43:39.533Z,42.97
2018-01-27T20:46:05.902Z,43.65
2018-01-27T20:48:32.316Z,45.20
2018-01-27T20:50:58.701Z,42.75
2018-01-27T20:53:25.096Z,48.20
2018-01-27T20:55:51.465Z,44.53
2018-01-27T20:58:17.808Z,43.05
2018-01-27T21:00:44.156Z,41.60
2018-01-27T21:03:12.182Z,48.80
2018-01-27T21:05:38.716Z,47.17
2018-01-27T21:08:08.938Z,49.10
2018-01-27T21:10:35.248Z,44.95
2018-01-27T21:13:01.558Z,47.65
2018-01-27T21:15:27.911Z,49.08
2018-01-27T21:17:54.228Z,44.65
2018-01-27T21:20:21.293Z,46.55
2018-01-27T21:22:48.361Z,42.53
2018-01-27T21:25:15.504Z,43.78
2018-01-27T21:27:43.420Z,40.80
2018-01-27T21:30:10.634Z,42.08
2018-01-27T21:32:36.994Z,40.70
2018-01-27T21:35:03.322Z,43.08
2018-01-27T21:37:29.623Z,41.28
2018-01-27T21:39:55.969Z,43.90
2018-01-27T21:42:22.274Z,44.28
2018-01-27T21:44:49.366Z,41.55
2018-01-27T21:47:15.664Z,44.17
2018-01-27T21:49:42.716Z,42.85
2018-01-27T21:52:09.422Z,41.63
2018-01-27T21:54:35.737Z,42.58
2018-01-27T21:57:02.031Z,42.58
2018-01-27T21:59:29.086Z,40.55
2018-01-27T22:01:56.516Z,42.58
2018-01-27T22:04:22.866Z,40.40
2018-01-27T22:06:49.182Z,41.42
2018-01-27T22:09:17.526Z,42.28
2018-01-27T22:11:43.982Z,44.67
2018-01-27T22:14:10.275Z,44.55
2018-01-27T22:16:36.573Z,40.88
2018-01-27T22:19:02.855Z,43.28
2018-01-27T22:21:29.158Z,40.60
2018-01-27T22:23:55.412Z,45.20
2018-01-27T22:26:21.711Z,45.25
2018-01-27T22:28:47.955Z,44.08
2018-01-27T22:31:14.221Z,47.33
2018-01-27T22:33:40.553Z,43.95
2018-01-27T22:36:06.844Z,43.70
2018-01-27T22:38:33.893Z,43.03
2018-01-27T22:41:00.908Z,42.62
2018-01-27T22:43:27.155Z,43.80
2018-01-27T22:45:53.429Z,44.00
2018-01-27T22:48:20.450Z,43.67
2018-01-27T22:50:46.723Z,42.83
2018-01-27T22:53:12.952Z,45.90
2018-01-27T22:55:39.214Z,43.40
2018-01-27T22:58:06.247Z,42.47
2018-01-27T23:00:32.540Z,41.90
2018-01-27T23:02:58.815Z,45.35
2018-01-27T23:05:25.093Z,43.33
2018-01-27T23:07:52.093Z,42.75
2018-01-27T23:10:18.349Z,44.42
2018-01-27T23:12:44.634Z,42.67
2018-01-27T23:15:11.664Z,41.22
2018-01-27T23:17:37.969Z,41.37
2018-01-27T23:20:04.241Z,40.03
2018-01-27T23:22:30.478Z,41.60
2018-01-27T23:24:56.769Z,41.40
2018-01-27T23:27:23.833Z,38.38
2018-01-27T23:29:50.055Z,39.83
2018-01-27T23:32:17.071Z,43.03
2018-01-27T23:34:43.329Z,41.15
2018-01-27T23:37:09.586Z,42.80
2018-01-27T23:39:35.824Z,38.70
2018-01-27T23:42:02.071Z,40.97
2018-01-27T23:44:29.041Z,44.22
2018-01-27T23:46:56.013Z,42.72
2018-01-27T23:49:22.312Z,43.08
2018-01-27T23:51:48.519Z,40.00
2018-01-27T23:54:14.796Z,40.95
2018-01-27T23:56:41.031Z,42.25
2018-01-27T23:59:07.290Z,40.15
